Time;durP1;ratioP1;P1;durP2;ratioP2;P2;SDS_P1;SDS_P2;PMS_P1;PMS_P2;Temp;Humidity;BMP_temperature;BMP_pressure;BME280_temperature;BME280_humidity;BME280_pressure;Samples;Min_cycle;Max_cycle;Signal;HPM_P1;HPM_P2
2022/09/22 00:01:41;;;;;;;6.57;5.43;;;24.30;78.60;;;;;;5089548;28;20484;-67
2022/09/22 00:04:13;;;;;;;6.10;5.50;;;24.10;79.20;;;;;;5096380;28;20577;-68
2022/09/22 00:06:47;;;;;;;6.93;5.90;;;24.10;79.80;;;;;;5104806;28;20451;-68
2022/09/22 00:09:20;;;;;;;5.83;5.23;;;24.10;81.60;;;;;;5104881;28;20471;-68
2022/09/22 00:11:53;;;;;;;6.20;5.60;;;24.00;81.10;;;;;;5109988;28;20453;-68
2022/09/22 00:14:27;;;;;;;5.93;5.37;;;23.90;81.00;;;;;;5102331;28;20462;-68
2022/09/22 00:17:00;;;;;;;6.77;6.07;;;23.80;80.90;;;;;;5117210;28;20554;-68
2022/09/22 00:19:33;;;;;;;6.80;4.80;;;23.80;82.40;;;;;;5100447;28;20498;-70
2022/09/22 00:22:05;;;;;;;5.20;4.70;;;23.70;82.10;;;;;;5104128;28;20455;-68
2022/09/22 00:24:36;;;;;;;6.07;5.40;;;23.70;82.30;;;;;;5115381;28;20467;-69
2022/09/22 00:27:07;;;;;;;7.10;5.47;;;23.60;83.30;;;;;;5099334;28;20520;-72
2022/09/22 00:29:40;;;;;;;5.80;5.30;;;23.60;83.10;;;;;;5107157;28;20491;-70
2022/09/22 00:32:12;;;;;;;6.30;4.90;;;23.70;83.20;;;;;;5117432;28;20530;-69
2022/09/22 00:34:44;;;;;;;6.80;5.60;;;23.70;83.60;;;;;;5110615;28;20451;-68
2022/09/22 00:37:15;;;;;;;5.50;5.00;;;23.60;83.90;;;;;;5105142;28;20531;-68
2022/09/22 00:39:46;;;;;;;7.20;5.20;;;23.60;84.50;;;;;;5109331;28;20515;-69
2022/09/22 00:42:18;;;;;;;5.90;5.27;;;23.60;84.80;;;;;;5105117;28;20514;-70
2022/09/22 00:44:51;;;;;;;11.30;5.17;;;23.50;85.20;;;;;;5105746;28;20954;-69
2022/09/22 00:47:31;;;;;;;7.13;5.50;;;23.50;85.70;;;;;;5113429;28;20461;-70
2022/09/22 00:50:09;;;;;;;5.90;5.37;;;23.40;86.90;;;;;;5109849;28;20539;-69
2022/09/22 00:52:45;;;;;;;4.90;4.50;;;23.40;87.00;;;;;;5108821;28;20451;-69
2022/09/22 00:55:19;;;;;;;10.13;5.70;;;23.40;86.40;;;;;;5105241;28;20462;-68
2022/09/22 00:57:52;;;;;;;5.73;5.17;;;23.40;86.30;;;;;;5112529;28;20480;-68
2022/09/22 01:00:25;;;;;;;7.10;4.60;;;23.30;87.10;;;;;;5103598;28;20491;-70
2022/09/22 01:02:59;;;;;;;7.77;5.47;;;23.30;87.40;;;;;;5104574;28;20450;-69
2022/09/22 01:05:33;;;;;;;6.10;5.50;;;23.20;87.40;;;;;;5109284;28;21028;-70
2022/09/22 01:08:06;;;;;;;5.40;4.63;;;23.30;87.80;;;;;;5100488;28;20462;-67
2022/09/22 01:10:37;;;;;;;5.80;4.90;;;23.40;88.20;;;;;;5103161;28;20930;-70
2022/09/22 01:13:22;;;;;;;7.77;6.27;;;23.30;87.90;;;;;;5106875;28;20470;-70
2022/09/22 01:16:13;;;;;;;5.87;4.60;;;23.30;86.40;;;;;;5110644;28;20458;-70
2022/09/22 01:19:01;;;;;;;4.83;4.33;;;23.30;85.40;;;;;;5102706;28;20465;-69
2022/09/22 01:21:41;;;;;;;6.60;5.30;;;23.20;86.20;;;;;;5111124;28;20461;-69
2022/09/22 01:24:50;;;;;;;5.60;5.07;;;23.10;86.20;;;;;;5102370;28;20507;-76
2022/09/22 01:28:01;;;;;;;5.13;4.73;;;23.10;85.80;;;;;;5068012;28;20532;-71
2022/09/22 01:30:39;;;;;;;5.43;4.13;;;23.10;84.60;;;;;;5061647;28;20456;-71
2022/09/22 01:33:34;;;;;;;6.30;5.27;;;23.10;85.70;;;;;;5066346;28;21044;-74
2022/09/22 01:36:21;;;;;;;4.80;4.10;;;23.00;85.10;;;;;;5061483;28;20453;-70
2022/09/22 01:39:02;;;;;;;6.30;4.50;;;22.90;85.70;;;;;;5058963;28;20484;-72
2022/09/22 01:41:50;;;;;;;5.00;4.53;;;22.90;85.70;;;;;;5059836;28;20496;-71
2022/09/22 01:44:30;;;;;;;4.93;4.43;;;22.80;85.90;;;;;;5060571;28;20472;-72
2022/09/22 01:47:10;;;;;;;5.83;5.20;;;22.90;86.00;;;;;;5062152;28;20459;-70
2022/09/22 01:49:45;;;;;;;4.87;4.40;;;22.80;86.20;;;;;;5062736;28;20464;-67
2022/09/22 01:52:22;;;;;;;4.70;4.30;;;22.80;86.90;;;;;;5059506;28;20456;-68
2022/09/22 01:54:59;;;;;;;5.07;4.37;;;22.80;87.70;;;;;;5066422;28;20472;-68
2022/09/22 01:57:36;;;;;;;5.90;5.20;;;22.70;88.10;;;;;;5058910;28;20484;-69
2022/09/22 02:00:11;;;;;;;4.90;4.43;;;22.60;88.50;;;;;;5058114;28;20484;-67
2022/09/22 02:02:52;;;;;;;5.07;4.57;;;22.60;88.70;;;;;;5101559;28;20496;-69
2022/09/22 02:05:28;;;;;;;5.20;4.60;;;22.60;89.10;;;;;;5101708;28;20555;-70
2022/09/22 02:08:08;;;;;;;4.07;3.67;;;22.50;89.80;;;;;;5101784;28;20494;-70
2022/09/22 02:10:43;;;;;;;4.60;3.57;;;22.40;90.10;;;;;;5103550;28;20454;-70
2022/09/22 02:13:16;;;;;;;4.30;3.80;;;22.40;90.40;;;;;;5101073;28;20446;-70
2022/09/22 02:16:03;;;;;;;4.60;4.20;;;22.40;90.50;;;;;;5102295;28;20435;-69
2022/09/22 02:18:41;;;;;;;4.47;4.07;;;22.30;90.80;;;;;;5101735;28;20446;-76
2022/09/22 02:21:15;;;;;;;5.77;4.70;;;22.30;91.20;;;;;;5100102;28;20550;-73
2022/09/22 02:23:48;;;;;;;4.60;3.70;;;22.10;91.80;;;;;;5115023;28;20486;-72
2022/09/22 02:26:23;;;;;;;4.40;4.00;;;22.10;92.00;;;;;;5101615;28;20470;-69
2022/09/22 02:29:00;;;;;;;6.87;4.70;;;22.10;92.30;;;;;;5106868;28;20466;-69
2022/09/22 02:31:35;;;;;;;6.27;5.03;;;22.00;92.70;;;;;;5094334;28;20438;-69
2022/09/22 02:34:09;;;;;;;5.23;4.67;;;22.00;93.00;;;;;;5102982;28;20454;-70
2022/09/22 02:36:50;;;;;;;5.13;3.80;;;21.90;93.50;;;;;;5107563;28;20462;-70
2022/09/22 02:39:28;;;;;;;7.43;5.37;;;21.80;93.90;;;;;;5115082;28;20518;-70
2022/09/22 02:42:16;;;;;;;6.10;4.67;;;21.80;94.40;;;;;;5088658;28;20539;-71
2022/09/22 02:44:52;;;;;;;6.80;4.27;;;21.80;94.70;;;;;;5115072;28;20460;-73
2022/09/22 02:47:31;;;;;;;4.97;3.70;;;21.80;95.00;;;;;;5104029;28;20494;-71
2022/09/22 02:50:07;;;;;;;4.00;3.60;;;21.70;95.40;;;;;;5096799;28;20489;-73
2022/09/22 02:52:40;;;;;;;4.30;3.90;;;21.70;95.80;;;;;;5101761;28;20466;-73
2022/09/22 02:55:14;;;;;;;4.77;4.23;;;21.60;96.00;;;;;;5096368;28;20446;-73
2022/09/22 02:57:46;;;;;;;4.60;3.77;;;21.60;96.20;;;;;;5103560;28;20481;-73
2022/09/22 03:00:16;;;;;;;4.50;4.10;;;21.60;96.50;;;;;;5107177;28;20489;-71
2022/09/22 03:02:47;;;;;;;4.80;3.40;;;21.60;96.80;;;;;;5101352;28;20459;-71
2022/09/22 03:05:20;;;;;;;3.67;3.23;;;21.50;97.20;;;;;;5105057;28;20526;-71
2022/09/22 03:07:50;;;;;;;6.93;3.40;;;21.50;97.50;;;;;;5101083;28;20450;-71
2022/09/22 03:10:21;;;;;;;5.53;5.03;;;21.50;97.80;;;;;;5118088;28;20487;-70
2022/09/22 03:12:52;;;;;;;5.37;3.43;;;21.40;98.00;;;;;;5099287;28;20463;-70
2022/09/22 03:15:43;;;;;;;5.90;2.77;;;21.40;98.20;;;;;;5103756;28;20438;-71
2022/09/22 03:18:15;;;;;;;3.73;2.83;;;21.40;98.70;;;;;;5101314;28;20462;-71
2022/09/22 03:20:48;;;;;;;3.60;3.20;;;21.30;99.00;;;;;;5115201;28;21133;-72
2022/09/22 03:23:18;;;;;;;3.50;3.20;;;21.30;99.30;;;;;;5103847;28;20519;-70
2022/09/22 03:25:49;;;;;;;3.77;3.40;;;21.30;99.50;;;;;;5110716;28;20508;-74
2022/09/22 03:28:20;;;;;;;3.97;3.30;;;21.30;99.70;;;;;;5101226;28;20455;-72
2022/09/22 03:30:51;;;;;;;3.80;3.00;;;21.20;99.90;;;;;;5108486;28;20470;-72
2022/09/22 03:33:22;;;;;;;2.73;2.53;;;21.20;99.90;;;;;;5100952;28;20898;-72
2022/09/22 03:35:54;;;;;;;3.13;2.83;;;21.20;99.90;;;;;;5101426;28;20528;-71
2022/09/22 03:38:25;;;;;;;2.97;2.77;;;21.20;99.90;;;;;;5104052;28;20579;-72
2022/09/22 03:40:57;;;;;;;2.90;2.70;;;21.10;99.90;;;;;;5100819;28;20519;-70
2022/09/22 03:43:28;;;;;;;3.30;3.00;;;21.20;99.90;;;;;;5099618;28;20974;-72
2022/09/22 03:45:59;;;;;;;3.20;2.90;;;21.10;99.90;;;;;;5103541;28;20503;-71
2022/09/22 03:48:31;;;;;;;2.80;2.57;;;21.20;99.90;;;;;;5102805;28;20494;-72
2022/09/22 03:51:04;;;;;;;4.97;2.80;;;21.00;99.90;;;;;;5109576;28;20462;-71
2022/09/22 03:53:35;;;;;;;3.83;3.10;;;21.10;99.90;;;;;;5094150;28;20545;-71
2022/09/22 03:56:07;;;;;;;3.67;2.80;;;21.00;99.90;;;;;;5100866;28;20519;-71
2022/09/22 03:58:39;;;;;;;3.30;2.70;;;21.00;99.90;;;;;;5100937;28;20451;-70
2022/09/22 04:01:11;;;;;;;2.63;2.43;;;21.00;99.90;;;;;;5112268;28;20484;-70
2022/09/22 04:03:42;;;;;;;2.80;2.30;;;21.00;99.90;;;;;;5116981;28;20474;-71
2022/09/22 04:06:15;;;;;;;3.40;2.60;;;21.00;99.90;;;;;;5105724;28;20488;-69
2022/09/22 04:08:46;;;;;;;3.73;2.97;;;21.00;99.90;;;;;;5108731;28;20524;-70
2022/09/22 04:11:16;;;;;;;2.83;2.57;;;20.90;99.90;;;;;;5116734;28;20475;-69
2022/09/22 04:13:47;;;;;;;4.10;2.60;;;20.90;99.90;;;;;;5103775;28;20504;-70
2022/09/22 04:16:18;;;;;;;3.47;2.40;;;20.90;99.80;;;;;;5115976;28;20458;-69
2022/09/22 04:18:49;;;;;;;2.40;1.87;;;20.90;99.40;;;;;;5106006;28;20468;-67
2022/09/22 04:21:21;;;;;;;2.20;2.00;;;20.80;98.90;;;;;;5107882;28;20490;-66
2022/09/22 04:23:52;;;;;;;3.97;2.67;;;20.80;99.10;;;;;;5105117;28;20466;-68
2022/09/22 04:26:23;;;;;;;2.97;2.70;;;20.80;98.50;;;;;;5116589;28;20491;-69
2022/09/22 04:28:54;;;;;;;1.70;1.60;;;20.80;98.00;;;;;;5107148;28;20559;-69
2022/09/22 04:31:24;;;;;;;3.70;1.87;;;20.80;97.80;;;;;;5090681;28;20443;-70
2022/09/22 04:33:55;;;;;;;2.20;2.00;;;20.80;97.80;;;;;;5106442;28;20447;-70
2022/09/22 04:36:28;;;;;;;2.03;1.93;;;20.70;97.80;;;;;;5104800;28;20454;-69
2022/09/22 04:39:01;;;;;;;2.07;1.87;;;20.70;97.80;;;;;;5122984;28;20481;-69
2022/09/22 04:41:32;;;;;;;2.17;1.97;;;20.70;97.80;;;;;;5096099;28;20478;-69
2022/09/22 04:44:03;;;;;;;2.73;2.33;;;20.70;97.70;;;;;;5118403;28;20453;-70
2022/09/22 04:46:35;;;;;;;2.50;2.20;;;20.60;97.90;;;;;;5114040;28;20458;-70
2022/09/22 04:49:06;;;;;;;2.20;1.70;;;20.50;97.90;;;;;;5120496;28;20498;-70
2022/09/22 04:51:39;;;;;;;1.70;1.53;;;20.50;97.40;;;;;;5105798;28;20454;-70
2022/09/22 04:54:09;;;;;;;2.13;1.80;;;20.40;97.40;;;;;;5105993;28;20434;-70
2022/09/22 04:56:40;;;;;;;2.70;1.93;;;20.30;97.60;;;;;;5105014;28;20499;-70
2022/09/22 04:59:11;;;;;;;2.03;1.90;;;20.30;97.60;;;;;;5105111;28;20470;-70
2022/09/22 05:01:42;;;;;;;3.77;2.13;;;20.20;98.10;;;;;;5101151;28;20527;-70
2022/09/22 05:04:13;;;;;;;3.20;2.33;;;20.10;98.00;;;;;;5102859;28;20807;-69
2022/09/22 05:06:45;;;;;;;1.90;1.80;;;20.10;98.00;;;;;;5110308;28;21073;-69
2022/09/22 05:09:16;;;;;;;3.00;1.83;;;20.00;98.00;;;;;;5125014;27;20449;-68
2022/09/22 05:11:47;;;;;;;1.60;1.40;;;20.00;98.10;;;;;;5117369;28;20443;-69
2022/09/22 05:14:18;;;;;;;1.97;1.83;;;20.10;98.10;;;;;;5110136;28;20409;-69
2022/09/22 05:16:55;;;;;;;2.00;1.80;;;20.00;98.30;;;;;;5110450;28;20479;-69
2022/09/22 05:19:26;;;;;;;1.90;1.70;;;19.90;98.70;;;;;;5108312;28;20487;-69
2022/09/22 05:21:59;;;;;;;2.20;2.00;;;19.80;99.00;;;;;;5104229;28;20489;-69
2022/09/22 05:24:31;;;;;;;2.10;1.70;;;19.70;99.30;;;;;;5104381;28;20446;-69
2022/09/22 05:27:03;;;;;;;2.70;2.20;;;19.60;99.50;;;;;;5107909;28;20445;-69
2022/09/22 05:29:35;;;;;;;2.20;1.80;;;19.50;99.70;;;;;;5124035;28;20439;-69
2022/09/22 05:32:06;;;;;;;3.07;1.97;;;19.60;99.90;;;;;;5107639;28;20450;-69
2022/09/22 05:34:37;;;;;;;2.17;1.90;;;19.50;99.90;;;;;;5110589;28;20474;-69
2022/09/22 05:37:09;;;;;;;2.00;1.80;;;19.50;99.90;;;;;;5112392;28;20429;-69
2022/09/22 05:39:40;;;;;;;2.00;1.80;;;19.50;99.90;;;;;;5119883;28;20450;-68
2022/09/22 05:42:11;;;;;;;1.97;1.67;;;19.50;99.90;;;;;;5102130;28;20490;-68
2022/09/22 05:44:41;;;;;;;2.53;1.80;;;19.40;99.90;;;;;;5109082;28;20462;-67
2022/09/22 05:47:12;;;;;;;3.23;2.03;;;19.40;99.90;;;;;;5103288;28;20488;-66
2022/09/22 05:49:43;;;;;;;2.70;2.30;;;19.40;99.90;;;;;;5110137;28;20451;-68
2022/09/22 05:52:16;;;;;;;2.37;2.17;;;19.30;99.90;;;;;;5103656;28;20508;-67
2022/09/22 05:54:47;;;;;;;2.27;1.70;;;19.30;99.90;;;;;;5099173;28;20538;-68
2022/09/22 05:57:20;;;;;;;1.83;1.63;;;19.30;99.90;;;;;;5114939;28;20449;-67
2022/09/22 05:59:53;;;;;;;2.00;1.80;;;19.40;99.90;;;;;;5115454;28;20438;-70
2022/09/22 06:02:25;;;;;;;1.60;1.50;;;19.30;99.90;;;;;;5102622;28;20558;-68
2022/09/22 06:04:56;;;;;;;3.00;1.97;;;19.20;99.90;;;;;;5100490;28;20469;-68
2022/09/22 06:07:29;;;;;;;2.40;2.20;;;19.20;99.90;;;;;;5101779;28;20462;-68
2022/09/22 06:09:59;;;;;;;2.43;1.77;;;19.20;99.90;;;;;;5104049;28;20475;-68
2022/09/22 06:12:30;;;;;;;2.10;1.73;;;19.20;99.90;;;;;;5112443;28;20486;-69
2022/09/22 06:15:01;;;;;;;2.63;2.43;;;19.10;99.90;;;;;;5107212;28;20929;-69
2022/09/22 06:17:32;;;;;;;2.80;2.17;;;19.10;99.90;;;;;;5112635;28;20446;-69
2022/09/22 06:20:03;;;;;;;2.90;2.00;;;19.10;99.90;;;;;;5115311;28;20505;-69
2022/09/22 06:22:35;;;;;;;2.53;2.33;;;19.10;99.90;;;;;;5104095;28;20872;-69
2022/09/22 06:25:08;;;;;;;3.57;2.60;;;19.00;99.90;;;;;;5122689;28;20512;-69
2022/09/22 06:27:40;;;;;;;3.67;2.90;;;19.00;99.90;;;;;;5105985;28;20447;-68
2022/09/22 06:30:12;;;;;;;5.23;3.30;;;18.90;99.90;;;;;;5112703;28;20476;-69
2022/09/22 06:32:44;;;;;;;4.37;3.90;;;18.80;99.90;;;;;;5106733;28;20518;-68
2022/09/22 06:35:15;;;;;;;3.73;3.07;;;18.70;99.90;;;;;;5121949;28;20469;-68
2022/09/22 06:37:55;;;;;;;5.20;3.37;;;18.60;99.90;;;;;;5112171;28;20597;-68
2022/09/22 06:40:26;;;;;;;3.43;3.13;;;18.60;99.90;;;;;;5106126;28;21114;-68
2022/09/22 06:43:09;;;;;;;5.10;3.40;;;18.50;99.90;;;;;;5103265;28;20478;-68
2022/09/22 06:45:40;;;;;;;3.27;2.97;;;18.40;99.90;;;;;;5096263;28;20798;-68
2022/09/22 06:48:11;;;;;;;3.40;3.10;;;18.30;99.90;;;;;;5102318;28;20422;-69
2022/09/22 06:50:48;;;;;;;3.50;3.20;;;18.40;99.90;;;;;;5104596;28;20429;-68
2022/09/22 06:53:21;;;;;;;5.53;3.77;;;18.30;99.90;;;;;;5102354;28;20454;-68
2022/09/22 06:55:57;;;;;;;3.90;3.47;;;18.30;99.90;;;;;;5102247;28;20847;-68
2022/09/22 06:58:28;;;;;;;4.43;3.57;;;18.10;99.90;;;;;;5102808;28;20496;-68
2022/09/22 07:01:19;;;;;;;4.27;3.50;;;18.10;99.90;;;;;;5101187;28;20504;-68
2022/09/22 07:03:51;;;;;;;4.80;3.17;;;18.00;99.90;;;;;;5101585;28;20492;-69
2022/09/22 07:06:22;;;;;;;3.70;3.10;;;18.00;99.90;;;;;;5102682;28;20437;-69
2022/09/22 07:08:54;;;;;;;3.40;2.77;;;17.90;99.90;;;;;;5111765;28;20433;-68
2022/09/22 07:11:25;;;;;;;3.57;3.00;;;17.80;99.90;;;;;;5106256;28;20457;-68
2022/09/22 07:13:57;;;;;;;5.90;4.10;;;17.80;99.90;;;;;;5104154;28;20468;-68
2022/09/22 07:16:28;;;;;;;3.97;3.57;;;17.70;99.90;;;;;;5108802;28;20855;-68
2022/09/22 07:18:59;;;;;;;3.87;3.30;;;17.70;99.90;;;;;;5106058;28;20441;-68
2022/09/22 07:21:35;;;;;;;6.10;4.03;;;17.50;99.90;;;;;;5120093;28;20450;-68
2022/09/22 07:24:08;;;;;;;4.10;2.70;;;17.40;99.90;;;;;;5106725;28;20468;-68
2022/09/22 07:26:40;;;;;;;7.50;4.57;;;17.30;99.90;;;;;;5112450;28;20805;-69
2022/09/22 07:29:12;;;;;;;4.17;3.63;;;17.20;99.90;;;;;;5117867;28;20535;-69
2022/09/22 07:31:43;;;;;;;4.07;3.67;;;17.10;99.90;;;;;;5101911;28;20441;-68
2022/09/22 07:34:15;;;;;;;4.83;4.30;;;17.10;99.90;;;;;;5101761;28;20537;-68
2022/09/22 07:36:46;;;;;;;4.80;3.73;;;17.00;99.90;;;;;;5102631;28;20481;-68
2022/09/22 07:39:18;;;;;;;7.03;4.47;;;17.00;99.90;;;;;;5108934;28;20510;-69
2022/09/22 07:41:49;;;;;;;4.77;4.27;;;16.90;99.90;;;;;;5102579;28;20428;-69
2022/09/22 07:47:13;;;;;;;3.63;3.33;;;16.70;99.90;;;;;;5108144;28;20519;-69
2022/09/22 07:49:44;;;;;;;4.10;3.70;;;16.70;99.90;;;;;;5110532;28;20499;-68
2022/09/22 07:52:14;;;;;;;4.57;3.57;;;16.60;99.90;;;;;;5105178;28;20454;-69
2022/09/22 07:54:47;;;;;;;4.27;3.87;;;16.60;99.90;;;;;;5105004;28;20486;-68
2022/09/22 07:57:18;;;;;;;4.30;3.37;;;16.50;99.90;;;;;;5108274;28;20433;-69
2022/09/22 07:59:48;;;;;;;4.37;3.80;;;16.40;99.90;;;;;;5108269;28;20530;-69
2022/09/22 08:02:24;;;;;;;4.30;3.90;;;16.30;99.90;;;;;;5114100;28;20449;-69
2022/09/22 08:05:02;;;;;;;5.23;4.10;;;16.30;99.90;;;;;;5101222;28;20481;-69
2022/09/22 08:07:35;;;;;;;3.97;3.60;;;16.30;99.90;;;;;;5101528;28;20434;-68
2022/09/22 08:10:09;;;;;;;3.83;3.53;;;16.20;99.90;;;;;;5106156;28;20516;-68
2022/09/22 08:12:42;;;;;;;4.53;3.83;;;16.20;99.90;;;;;;5103206;28;20850;-68
2022/09/22 08:15:13;;;;;;;4.13;3.63;;;16.10;99.90;;;;;;5100834;28;20519;-69
2022/09/22 08:17:44;;;;;;;5.20;4.53;;;16.10;99.90;;;;;;5103333;28;20457;-68
2022/09/22 08:20:15;;;;;;;4.23;3.83;;;16.00;99.90;;;;;;5107450;28;20531;-68
2022/09/22 08:22:51;;;;;;;4.20;3.80;;;16.00;99.90;;;;;;5102811;28;20450;-68
2022/09/22 08:25:24;;;;;;;6.00;4.00;;;16.00;99.90;;;;;;5102386;28;20440;-69
2022/09/22 08:27:55;;;;;;;4.10;3.70;;;16.00;99.90;;;;;;5110399;28;20433;-69
2022/09/22 08:30:25;;;;;;;4.50;3.90;;;16.00;99.90;;;;;;5102974;28;20462;-68
2022/09/22 08:32:59;;;;;;;4.57;4.00;;;15.90;99.90;;;;;;5103574;28;20463;-69
2022/09/22 08:35:30;;;;;;;5.83;4.00;;;15.90;99.90;;;;;;5101610;28;20443;-68
2022/09/22 08:38:01;;;;;;;5.47;4.37;;;15.80;99.90;;;;;;5108387;28;20480;-68
2022/09/22 08:40:33;;;;;;;4.60;4.10;;;15.60;99.90;;;;;;5105925;28;20463;-68
2022/09/22 08:43:04;;;;;;;4.53;4.00;;;15.60;99.90;;;;;;5101903;28;20504;-69
2022/09/22 08:45:38;;;;;;;4.90;4.40;;;15.70;99.90;;;;;;5114663;28;20513;-69
2022/09/22 08:53:58;;;;;;;4.70;3.50;;;15.50;99.90;;;;;;5110210;28;20470;-69
2022/09/22 08:56:40;;;;;;;5.13;3.70;;;15.50;99.90;;;;;;5105191;28;20529;-69
2022/09/22 08:59:18;;;;;;;5.20;4.20;;;15.50;99.90;;;;;;5116243;28;20457;-69
2022/09/22 09:02:03;;;;;;;4.60;4.20;;;15.50;99.90;;;;;;5106618;28;20759;-69
2022/09/22 09:05:01;;;;;;;7.23;4.73;;;15.50;99.90;;;;;;5104245;28;20465;-69
2022/09/22 09:07:42;;;;;;;6.83;4.47;;;15.50;99.90;;;;;;5106094;28;20503;-69
2022/09/22 09:10:31;;;;;;;4.33;3.83;;;15.50;99.90;;;;;;5098741;28;20470;-69
2022/09/22 09:13:16;;;;;;;5.00;4.20;;;15.50;99.90;;;;;;5109859;28;20512;-69
2022/09/22 09:16:02;;;;;;;6.07;4.87;;;15.60;99.90;;;;;;5102074;28;20848;-69
2022/09/22 09:18:35;;;;;;;5.03;3.93;;;15.60;99.90;;;;;;5099909;28;20848;-69
2022/09/22 09:21:10;;;;;;;4.20;3.80;;;15.60;99.90;;;;;;5113782;28;20608;-69
2022/09/22 09:23:47;;;;;;;4.37;3.63;;;15.70;99.90;;;;;;5111565;28;20539;-69
2022/09/22 09:26:38;;;;;;;5.27;3.87;;;15.70;99.90;;;;;;5100784;28;20473;-69
2022/09/22 09:29:16;;;;;;;4.77;3.80;;;15.70;99.90;;;;;;5118506;28;20458;-69
2022/09/22 09:31:50;;;;;;;5.20;4.20;;;15.70;99.90;;;;;;5107461;28;20466;-68
2022/09/22 09:34:24;;;;;;;5.40;4.43;;;15.70;99.90;;;;;;5104079;28;20470;-68
2022/09/22 09:37:05;;;;;;;5.30;4.43;;;15.70;99.90;;;;;;5113915;28;20498;-68
2022/09/22 09:39:38;;;;;;;5.30;4.30;;;15.70;99.90;;;;;;5108555;28;20461;-69
2022/09/22 09:42:23;;;;;;;5.83;4.47;;;15.60;99.90;;;;;;5110238;28;20942;-69
2022/09/22 09:45:01;;;;;;;5.03;4.00;;;15.60;99.90;;;;;;5105943;28;20482;-69
2022/09/22 09:47:55;;;;;;;5.70;3.97;;;15.50;99.90;;;;;;5093346;28;20614;-69
2022/09/22 09:50:30;;;;;;;4.37;3.40;;;15.40;99.90;;;;;;5113946;28;20487;-69
2022/09/22 09:53:01;;;;;;;4.00;3.60;;;15.40;99.90;;;;;;5103581;28;20488;-69
2022/09/22 09:55:35;;;;;;;5.20;3.93;;;15.40;99.90;;;;;;5117619;28;20553;-69
2022/09/22 09:58:09;;;;;;;5.53;3.67;;;15.40;99.90;;;;;;5107494;28;20536;-70
2022/09/22 10:03:37;;;;;;;5.10;4.57;;;15.50;99.90;;;;;;5159489;27;21132;-70
2022/09/22 10:06:10;;;;;;;5.80;3.80;;;15.80;99.90;;;;;;5156065;27;20508;-70
2022/09/22 10:08:44;;;;;;;5.47;4.97;;;15.70;99.90;;;;;;5148414;27;20584;-70
2022/09/22 10:11:15;;;;;;;4.83;3.77;;;15.60;99.90;;;;;;5146142;27;20870;-69
2022/09/22 10:13:57;;;;;;;4.93;4.10;;;15.40;99.90;;;;;;5146617;27;20434;-68
2022/09/22 10:16:29;;;;;;;5.03;3.70;;;15.40;99.90;;;;;;5142026;27;20461;-68
2022/09/22 10:19:20;;;;;;;4.70;3.60;;;15.30;99.90;;;;;;5130024;27;20492;-68
2022/09/22 10:21:51;;;;;;;6.33;4.00;;;15.20;99.90;;;;;;5137636;27;20755;-68
2022/09/22 10:24:31;;;;;;;4.20;3.67;;;15.20;99.90;;;;;;5159714;27;20464;-68
2022/09/22 10:27:02;;;;;;;4.60;3.53;;;15.00;99.90;;;;;;5127797;27;20824;-69
2022/09/22 10:29:41;;;;;;;4.50;3.70;;;14.90;99.90;;;;;;5133511;27;20460;-69
2022/09/22 10:32:15;;;;;;;5.10;3.80;;;14.90;99.90;;;;;;5145086;27;20431;-68
2022/09/22 10:34:50;;;;;;;5.40;4.30;;;14.90;99.90;;;;;;5138150;27;20481;-69
2022/09/22 10:37:26;;;;;;;5.00;4.00;;;14.90;99.90;;;;;;5132801;27;20520;-68
2022/09/22 10:40:01;;;;;;;4.30;3.57;;;14.80;99.90;;;;;;5127820;27;20471;-68
2022/09/22 10:42:36;;;;;;;4.70;4.20;;;14.70;99.90;;;;;;5135056;27;20475;-68
2022/09/22 10:45:11;;;;;;;5.20;4.00;;;14.70;99.90;;;;;;5154730;27;20460;-68
2022/09/22 10:47:57;;;;;;;4.20;3.63;;;14.70;99.90;;;;;;5129782;27;20530;-68
2022/09/22 10:50:51;;;;;;;4.20;3.80;;;14.70;99.90;;;;;;5139730;27;20460;-68
2022/09/22 10:53:44;;;;;;;6.10;4.40;;;14.50;99.90;;;;;;5147835;27;20460;-68
2022/09/22 10:56:23;;;;;;;5.77;4.50;;;14.50;99.90;;;;;;5151895;27;20513;-69
2022/09/22 10:59:17;;;;;;;6.27;4.00;;;14.40;99.90;;;;;;5148855;27;20452;-70
2022/09/22 11:02:13;;;;;;;5.17;4.00;;;14.30;99.90;;;;;;5147663;27;20536;-70
2022/09/22 11:04:55;;;;;;;6.57;3.30;;;14.30;99.90;;;;;;5152443;27;20456;-70
2022/09/22 11:13:54;;;;;;;4.73;4.17;;;14.30;99.90;;;;;;5144360;27;20814;-69
2022/09/22 11:16:47;;;;;;;6.33;4.33;;;14.40;99.90;;;;;;5139979;27;20461;-69
2022/09/22 11:19:37;;;;;;;7.13;4.60;;;14.30;99.90;;;;;;5140367;27;20482;-68
2022/09/22 11:22:27;;;;;;;5.37;3.93;;;14.30;99.90;;;;;;5142891;27;20451;-68
2022/09/22 11:25:16;;;;;;;5.47;4.37;;;14.20;99.90;;;;;;5123661;27;20460;-68
2022/09/22 11:27:58;;;;;;;5.37;4.00;;;14.10;99.90;;;;;;5141976;27;20523;-68
2022/09/22 11:30:33;;;;;;;5.60;4.50;;;14.10;99.90;;;;;;5142144;27;20517;-69
2022/09/22 11:33:29;;;;;;;5.27;4.77;;;14.00;99.90;;;;;;5113378;27;20448;-69
2022/09/22 11:36:08;;;;;;;4.80;4.30;;;14.00;99.90;;;;;;5135621;27;20488;-70
2022/09/22 11:38:58;;;;;;;6.93;4.80;;;13.90;99.90;;;;;;5141488;27;20464;-70
2022/09/22 11:41:37;;;;;;;6.43;4.23;;;13.80;99.90;;;;;;5119155;27;20560;-71
2022/09/22 11:44:35;;;;;;;5.20;3.93;;;13.90;99.90;;;;;;5142881;27;20841;-69
2022/09/22 11:47:29;;;;;;;6.07;4.40;;;13.80;99.90;;;;;;5145215;27;20501;-68
2022/09/22 11:50:17;;;;;;;4.73;4.17;;;13.90;99.90;;;;;;5126458;27;20519;-66
2022/09/22 11:53:07;;;;;;;5.40;4.00;;;13.90;99.90;;;;;;5140252;27;20449;-68
2022/09/22 11:55:44;;;;;;;4.70;4.20;;;14.00;99.90;;;;;;5118863;27;20456;-68
2022/09/22 11:58:20;;;;;;;5.03;4.53;;;13.90;99.90;;;;;;5144680;27;20494;-68
2022/09/22 12:00:56;;;;;;;7.27;4.37;;;13.90;99.90;;;;;;5143829;27;20474;-67
2022/09/22 12:03:31;;;;;;;5.43;4.93;;;13.80;99.90;;;;;;5144454;27;20509;-68
2022/09/22 12:06:06;;;;;;;5.53;4.40;;;13.90;99.90;;;;;;5142504;27;20456;-68
2022/09/22 12:08:43;;;;;;;5.13;3.83;;;13.80;99.90;;;;;;5134955;27;20443;-69
2022/09/22 12:11:16;;;;;;;6.93;5.20;;;13.70;99.90;;;;;;5110234;27;20528;-69
2022/09/22 12:13:52;;;;;;;5.30;3.97;;;13.70;99.90;;;;;;5141821;27;21155;-69
2022/09/22 12:16:26;;;;;;;5.53;4.33;;;13.60;99.90;;;;;;5139061;27;20497;-70
2022/09/22 12:19:05;;;;;;;4.20;3.80;;;13.60;99.90;;;;;;5137921;27;20508;-69
2022/09/22 12:21:49;;;;;;;5.00;3.63;;;13.60;99.90;;;;;;5136582;27;20941;-68
2022/09/22 12:24:23;;;;;;;5.53;4.63;;;13.70;99.90;;;;;;5137471;27;20545;-68
2022/09/22 12:26:54;;;;;;;5.90;4.03;;;13.70;99.90;;;;;;5136641;27;20874;-68
2022/09/22 12:29:30;;;;;;;5.20;4.00;;;13.70;99.90;;;;;;5130749;27;20510;-69
2022/09/22 12:32:01;;;;;;;4.77;4.23;;;13.70;99.90;;;;;;5135749;27;20555;-69
2022/09/22 12:34:34;;;;;;;5.30;4.17;;;13.80;99.90;;;;;;5130118;27;20464;-69
2022/09/22 12:37:12;;;;;;;5.30;3.90;;;13.80;99.90;;;;;;5123767;27;20461;-69
2022/09/22 12:39:45;;;;;;;4.60;4.03;;;13.80;99.90;;;;;;5136214;27;20461;-68
2022/09/22 12:42:23;;;;;;;4.93;4.53;;;13.80;99.90;;;;;;5126245;27;20505;-69
2022/09/22 12:44:59;;;;;;;4.13;3.70;;;13.80;99.90;;;;;;5129130;27;20536;-68
2022/09/22 12:47:34;;;;;;;4.70;3.63;;;13.80;99.90;;;;;;5129222;27;20513;-69
2022/09/22 12:50:08;;;;;;;4.23;3.47;;;13.80;99.90;;;;;;5140336;27;20532;-68
2022/09/22 12:53:01;;;;;;;5.10;3.77;;;13.80;99.90;;;;;;5138931;27;20490;-69
2022/09/22 12:55:38;;;;;;;5.03;3.90;;;13.70;99.90;;;;;;5135580;27;20465;-69
2022/09/22 12:58:53;;;;;;;6.10;3.33;;;13.70;99.90;;;;;;5141047;27;20505;-68
2022/09/22 13:01:33;;;;;;;5.33;4.00;;;13.70;99.90;;;;;;5104762;27;20518;-67
2022/09/22 13:04:22;;;;;;;4.20;3.70;;;13.70;99.90;;;;;;5117286;27;20595;-68
2022/09/22 13:07:02;;;;;;;6.00;3.57;;;13.60;99.90;;;;;;5128732;27;20462;-68
2022/09/22 13:09:33;;;;;;;4.23;3.80;;;13.70;99.90;;;;;;5136819;27;20601;-68
2022/09/22 13:12:27;;;;;;;5.07;3.63;;;13.70;99.90;;;;;;5129305;27;20467;-69
2022/09/22 13:15:18;;;;;;;3.70;3.10;;;13.80;99.90;;;;;;5134224;27;20490;-68
2022/09/22 13:17:51;;;;;;;4.70;3.60;;;13.80;99.90;;;;;;5138621;27;20457;-68
2022/09/22 13:20:25;;;;;;;5.27;4.07;;;14.00;99.90;;;;;;5138455;27;20465;-68
2022/09/22 13:23:04;;;;;;;4.20;3.17;;;14.10;99.90;;;;;;5128871;27;20460;-68
2022/09/22 13:25:35;;;;;;;3.53;3.23;;;14.10;99.90;;;;;;5136967;27;20797;-68
2022/09/22 13:28:14;;;;;;;6.00;3.83;;;14.20;99.90;;;;;;5143237;27;20453;-69
2022/09/22 13:30:47;;;;;;;6.67;3.90;;;14.20;99.90;;;;;;5121179;27;20524;-69
2022/09/22 13:33:24;;;;;;;5.47;4.00;;;14.30;99.90;;;;;;5135452;27;20496;-69
2022/09/22 13:36:02;;;;;;;4.30;3.77;;;14.30;99.90;;;;;;5140931;27;20928;-69
2022/09/22 13:38:37;;;;;;;4.20;3.80;;;14.40;99.90;;;;;;5142369;27;20444;-69
2022/09/22 13:41:12;;;;;;;4.10;3.30;;;14.40;99.90;;;;;;5121064;27;20458;-70
2022/09/22 13:43:47;;;;;;;3.87;3.57;;;14.40;99.90;;;;;;5116399;27;21047;-69
2022/09/22 13:46:23;;;;;;;4.10;3.60;;;14.40;99.90;;;;;;5122460;27;20565;-69
2022/09/22 13:48:57;;;;;;;5.13;3.37;;;14.40;99.90;;;;;;5143760;27;20441;-69
2022/09/22 13:51:28;;;;;;;3.27;2.83;;;14.40;99.90;;;;;;5139181;27;20452;-69